Delays


#1

Flight Aware is reporting 40 minute delays at ORD.

FAA.gov is not reporting anything along with airport status on my iphone.

Where is FA getting this 40 minute delay from?

It is currently 1430Z on Sept. 9th, 2010.

Current weather is 091351Z 02005KT 10SM FEW045 SCT120 SCT250 16/09 A3015 RMK AO2 SLP209 T01610094 and not a storm system within 200+ miles.


#2

In addition to the fly.faa.gov delays, we create our own when we see a number of flights more than 15 min late.


#3

Ah ok. Thanks for the update! :smiley: